Terminal Aerodrome Forecast
Issued by NWS

Home | Current Version | Previous Version | Text Only | Print | Product List | Glossary On
Versions: 1 2 3 4 5 6 7 8 9 10 11 12 13 14 15 16 17 18 19 20 21 22 23 24 25 26 27 28 29 30 31 32 33 34 35 36 37 38 39
000
FTUS43 KGRB 010527 AAA
TAFRHI
TAF AMD
KRHI 010527Z 0105/0206 01003KT 5SM BR SCT200
      TEMPO 0106/0110 1SM BR SCT008
     FM011300 01006KT P6SM SCT050
     FM020100 VRB03KT P6SM SKC=

USA.gov is the U.S. government's official web portal to all federal, state and local government web resources and services.